sensor_id;sensor_type;location;lat;lon;timestamp;temperature;humidity
8593;DHT22;4334;49.982;8.398;2023-12-20T00:10:49;5.30;99.90
8593;DHT22;4334;49.982;8.398;2023-12-20T00:42:44;5.30;99.90
8593;DHT22;4334;49.982;8.398;2023-12-20T00:45:12;5.30;99.90
8593;DHT22;4334;49.982;8.398;2023-12-20T00:50:11;5.30;99.90
8593;DHT22;4334;49.982;8.398;2023-12-20T01:17:12;5.30;99.90
8593;DHT22;4334;49.982;8.398;2023-12-20T01:24:37;5.40;99.90
8593;DHT22;4334;49.982;8.398;2023-12-20T01:27:04;5.40;99.90
8593;DHT22;4334;49.982;8.398;2023-12-20T01:34:26;5.40;99.90
8593;DHT22;4334;49.982;8.398;2023-12-20T01:36:53;5.40;99.90
8593;DHT22;4334;49.982;8.398;2023-12-20T01:39:21;5.40;99.90
8593;DHT22;4334;49.982;8.398;2023-12-20T01:49:09;5.40;99.90
8593;DHT22;4334;49.982;8.398;2023-12-20T01:54:03;5.40;99.90
8593;DHT22;4334;49.982;8.398;2023-12-20T01:59:00;5.40;99.90
8593;DHT22;4334;49.982;8.398;2023-12-20T02:03:55;5.40;99.90
8593;DHT22;4334;49.982;8.398;2023-12-20T02:06:23;5.40;99.90
8593;DHT22;4334;49.982;8.398;2023-12-20T02:11:18;5.40;99.90
8593;DHT22;4334;49.982;8.398;2023-12-20T02:16:12;5.40;99.90
8593;DHT22;4334;49.982;8.398;2023-12-20T02:18:39;5.40;99.90
8593;DHT22;4334;49.982;8.398;2023-12-20T02:23:34;5.40;99.90
8593;DHT22;4334;49.982;8.398;2023-12-20T02:26:01;5.40;99.90
8593;DHT22;4334;49.982;8.398;2023-12-20T02:28:29;5.40;99.90
8593;DHT22;4334;49.982;8.398;2023-12-20T02:33:23;5.40;99.90
8593;DHT22;4334;49.982;8.398;2023-12-20T02:35:50;5.30;99.90
8593;DHT22;4334;49.982;8.398;2023-12-20T02:38:18;5.30;99.90
8593;DHT22;4334;49.982;8.398;2023-12-20T02:40:46;5.30;99.90
8593;DHT22;4334;49.982;8.398;2023-12-20T02:45:40;5.30;99.90
8593;DHT22;4334;49.982;8.398;2023-12-20T02:48:07;5.20;99.90
8593;DHT22;4334;49.982;8.398;2023-12-20T02:50:34;5.20;99.90
8593;DHT22;4334;49.982;8.398;2023-12-20T02:55:27;5.30;99.90
8593;DHT22;4334;49.982;8.398;2023-12-20T03:00:23;5.30;99.90
8593;DHT22;4334;49.982;8.398;2023-12-20T03:02:49;5.30;99.90
8593;DHT22;4334;49.982;8.398;2023-12-20T03:05:18;5.30;99.90
8593;DHT22;4334;49.982;8.398;2023-12-20T03:15:09;5.40;99.90
8593;DHT22;4334;49.982;8.398;2023-12-20T03:24:57;5.40;99.90
8593;DHT22;4334;49.982;8.398;2023-12-20T03:29:51;5.50;99.90
8593;DHT22;4334;49.982;8.398;2023-12-20T03:32:19;5.50;99.90
8593;DHT22;4334;49.982;8.398;2023-12-20T03:37:13;5.50;99.90
8593;DHT22;4334;49.982;8.398;2023-12-20T03:39:40;5.50;99.90
8593;DHT22;4334;49.982;8.398;2023-12-20T03:42:07;5.50;99.90
8593;DHT22;4334;49.982;8.398;2023-12-20T03:47:01;5.50;99.90
8593;DHT22;4334;49.982;8.398;2023-12-20T03:51:56;5.50;99.90
8593;DHT22;4334;49.982;8.398;2023-12-20T03:54:24;5.50;99.90
8593;DHT22;4334;49.982;8.398;2023-12-20T04:04:13;5.50;99.90
8593;DHT22;4334;49.982;8.398;2023-12-20T04:11:36;5.40;99.90
8593;DHT22;4334;49.982;8.398;2023-12-20T04:14:03;5.40;99.90
8593;DHT22;4334;49.982;8.398;2023-12-20T04:16:31;5.40;99.90
8593;DHT22;4334;49.982;8.398;2023-12-20T04:23:53;5.40;99.90
8593;DHT22;4334;49.982;8.398;2023-12-20T04:26:19;5.40;99.90
8593;DHT22;4334;49.982;8.398;2023-12-20T04:28:46;5.40;99.90
8593;DHT22;4334;49.982;8.398;2023-12-20T04:31:13;5.40;99.90
8593;DHT22;4334;49.982;8.398;2023-12-20T04:33:39;5.40;99.90
8593;DHT22;4334;49.982;8.398;2023-12-20T04:36:06;5.30;99.90
8593;DHT22;4334;49.982;8.398;2023-12-20T04:38:34;5.30;99.90
8593;DHT22;4334;49.982;8.398;2023-12-20T04:41:03;5.20;99.90
8593;DHT22;4334;49.982;8.398;2023-12-20T04:43:29;5.10;99.90
8593;DHT22;4334;49.982;8.398;2023-12-20T04:45:56;5.10;99.90
8593;DHT22;4334;49.982;8.398;2023-12-20T04:53:17;5.40;99.90
8593;DHT22;4334;49.982;8.398;2023-12-20T04:58:15;5.40;99.90
8593;DHT22;4334;49.982;8.398;2023-12-20T05:00:42;5.40;99.90
8593;DHT22;4334;49.982;8.398;2023-12-20T05:08:04;5.50;99.90
8593;DHT22;4334;49.982;8.398;2023-12-20T05:10:30;5.50;99.90
8593;DHT22;4334;49.982;8.398;2023-12-20T05:12:57;5.40;99.90
8593;DHT22;4334;49.982;8.398;2023-12-20T05:17:52;5.40;99.90
8593;DHT22;4334;49.982;8.398;2023-12-20T05:22:46;5.30;99.90
8593;DHT22;4334;49.982;8.398;2023-12-20T05:25:13;5.20;99.90
8593;DHT22;4334;49.982;8.398;2023-12-20T05:27:40;5.10;99.90
8593;DHT22;4334;49.982;8.398;2023-12-20T05:35:03;5.20;99.90
8593;DHT22;4334;49.982;8.398;2023-12-20T05:42:24;5.20;99.90
8593;DHT22;4334;49.982;8.398;2023-12-20T05:49:46;5.00;99.90
8593;DHT22;4334;49.982;8.398;2023-12-20T05:52:13;5.00;99.90
8593;DHT22;4334;49.982;8.398;2023-12-20T05:54:40;4.90;99.90
8593;DHT22;4334;49.982;8.398;2023-12-20T05:59:34;4.70;99.90
8593;DHT22;4334;49.982;8.398;2023-12-20T06:04:27;4.50;99.90
8593;DHT22;4334;49.982;8.398;2023-12-20T06:06:55;4.50;99.90
8593;DHT22;4334;49.982;8.398;2023-12-20T06:09:22;4.50;99.90
8593;DHT22;4334;49.982;8.398;2023-12-20T06:11:49;4.40;99.90
8593;DHT22;4334;49.982;8.398;2023-12-20T06:16:44;4.30;99.90
8593;DHT22;4334;49.982;8.398;2023-12-20T06:19:11;4.20;99.90
8593;DHT22;4334;49.982;8.398;2023-12-20T06:24:06;4.20;99.90
8593;DHT22;4334;49.982;8.398;2023-12-20T06:29:00;4.20;99.90
8593;DHT22;4334;49.982;8.398;2023-12-20T06:31:27;4.20;99.90
8593;DHT22;4334;49.982;8.398;2023-12-20T06:43:45;4.00;99.90
8593;DHT22;4334;49.982;8.398;2023-12-20T06:56:00;4.00;99.90
8593;DHT22;4334;49.982;8.398;2023-12-20T07:13:12;3.90;99.90
8593;DHT22;4334;49.982;8.398;2023-12-20T07:15:41;3.80;99.90
8593;DHT22;4334;49.982;8.398;2023-12-20T07:23:01;3.90;99.90
8593;DHT22;4334;49.982;8.398;2023-12-20T07:25:28;4.00;99.90
8593;DHT22;4334;49.982;8.398;2023-12-20T07:27:58;4.10;99.90
8593;DHT22;4334;49.982;8.398;2023-12-20T07:30:24;5.20;99.90
8593;DHT22;4334;49.982;8.398;2023-12-20T07:32:52;5.60;99.90
8593;DHT22;4334;49.982;8.398;2023-12-20T07:35:19;5.20;99.90
8593;DHT22;4334;49.982;8.398;2023-12-20T07:37:46;5.20;99.90
8593;DHT22;4334;49.982;8.398;2023-12-20T07:40:12;4.90;99.90
8593;DHT22;4334;49.982;8.398;2023-12-20T07:42:39;4.70;99.90
8593;DHT22;4334;49.982;8.398;2023-12-20T07:45:06;4.60;99.90
8593;DHT22;4334;49.982;8.398;2023-12-20T07:47:33;4.60;99.90
8593;DHT22;4334;49.982;8.398;2023-12-20T07:50:01;4.70;99.90
8593;DHT22;4334;49.982;8.398;2023-12-20T07:52:29;4.80;99.90
8593;DHT22;4334;49.982;8.398;2023-12-20T07:54:55;4.60;99.90
8593;DHT22;4334;49.982;8.398;2023-12-20T07:57:23;4.60;99.90
8593;DHT22;4334;49.982;8.398;2023-12-20T07:59:49;4.70;99.90
8593;DHT22;4334;49.982;8.398;2023-12-20T08:02:16;4.90;99.90
8593;DHT22;4334;49.982;8.398;2023-12-20T08:04:43;4.90;99.90
8593;DHT22;4334;49.982;8.398;2023-12-20T08:07:11;5.30;99.90
8593;DHT22;4334;49.982;8.398;2023-12-20T08:09:38;5.70;99.90
8593;DHT22;4334;49.982;8.398;2023-12-20T08:12:05;6.10;99.90
8593;DHT22;4334;49.982;8.398;2023-12-20T08:14:32;6.30;99.90
8593;DHT22;4334;49.982;8.398;2023-12-20T08:16:58;6.50;99.90
8593;DHT22;4334;49.982;8.398;2023-12-20T08:19:25;6.30;99.90
8593;DHT22;4334;49.982;8.398;2023-12-20T08:21:52;6.00;99.90
8593;DHT22;4334;49.982;8.398;2023-12-20T08:24:20;5.80;99.90
8593;DHT22;4334;49.982;8.398;2023-12-20T08:26:46;5.80;99.90
8593;DHT22;4334;49.982;8.398;2023-12-20T08:29:13;5.80;99.90
8593;DHT22;4334;49.982;8.398;2023-12-20T08:31:40;5.90;99.90
8593;DHT22;4334;49.982;8.398;2023-12-20T08:34:07;5.90;99.90
8593;DHT22;4334;49.982;8.398;2023-12-20T08:36:33;5.50;99.90
8593;DHT22;4334;49.982;8.398;2023-12-20T08:39:00;6.60;99.90
8593;DHT22;4334;49.982;8.398;2023-12-20T08:41:30;6.50;99.90
8593;DHT22;4334;49.982;8.398;2023-12-20T08:43:57;6.60;99.90
8593;DHT22;4334;49.982;8.398;2023-12-20T08:46:23;6.80;99.90
8593;DHT22;4334;49.982;8.398;2023-12-20T08:48:50;6.90;99.90
8593;DHT22;4334;49.982;8.398;2023-12-20T08:51:17;6.80;99.90
8593;DHT22;4334;49.982;8.398;2023-12-20T08:53:44;6.50;99.90
8593;DHT22;4334;49.982;8.398;2023-12-20T08:56:13;6.30;99.90
8593;DHT22;4334;49.982;8.398;2023-12-20T08:58:41;6.20;99.90
8593;DHT22;4334;49.982;8.398;2023-12-20T09:01:08;6.20;99.90
8593;DHT22;4334;49.982;8.398;2023-12-20T09:03:34;6.20;99.90
8593;DHT22;4334;49.982;8.398;2023-12-20T09:06:01;6.20;99.90
8593;DHT22;4334;49.982;8.398;2023-12-20T09:08:28;6.20;99.90
8593;DHT22;4334;49.982;8.398;2023-12-20T09:10:54;6.20;99.90
8593;DHT22;4334;49.982;8.398;2023-12-20T09:13:21;6.20;99.90
8593;DHT22;4334;49.982;8.398;2023-12-20T09:15:54;6.40;99.90
8593;DHT22;4334;49.982;8.398;2023-12-20T09:18:21;6.30;99.90
8593;DHT22;4334;49.982;8.398;2023-12-20T09:20:48;6.40;99.90
8593;DHT22;4334;49.982;8.398;2023-12-20T09:23:14;10.50;99.90
8593;DHT22;4334;49.982;8.398;2023-12-20T09:25:42;6.50;99.90
8593;DHT22;4334;49.982;8.398;2023-12-20T09:28:10;6.60;99.90
8593;DHT22;4334;49.982;8.398;2023-12-20T09:30:36;6.60;99.90
8593;DHT22;4334;49.982;8.398;2023-12-20T09:33:06;6.60;99.90
8593;DHT22;4334;49.982;8.398;2023-12-20T09:35:33;6.60;99.90
8593;DHT22;4334;49.982;8.398;2023-12-20T09:38:00;6.80;99.90
8593;DHT22;4334;49.982;8.398;2023-12-20T09:40:27;7.40;99.90
8593;DHT22;4334;49.982;8.398;2023-12-20T09:42:56;8.10;99.90
8593;DHT22;4334;49.982;8.398;2023-12-20T09:45:24;8.50;99.90
8593;DHT22;4334;49.982;8.398;2023-12-20T09:47:52;8.00;99.90
8593;DHT22;4334;49.982;8.398;2023-12-20T09:50:21;7.50;99.90
8593;DHT22;4334;49.982;8.398;2023-12-20T09:52:50;7.30;99.90
8593;DHT22;4334;49.982;8.398;2023-12-20T09:55:18;7.20;99.90
8593;DHT22;4334;49.982;8.398;2023-12-20T09:57:45;7.60;99.90
8593;DHT22;4334;49.982;8.398;2023-12-20T10:00:13;7.80;99.90
8593;DHT22;4334;49.982;8.398;2023-12-20T10:02:45;7.60;99.90
8593;DHT22;4334;49.982;8.398;2023-12-20T10:05:30;7.50;99.90
8593;DHT22;4334;49.982;8.398;2023-12-20T10:07:58;7.30;99.90
8593;DHT22;4334;49.982;8.398;2023-12-20T10:10:25;8.70;99.90
8593;DHT22;4334;49.982;8.398;2023-12-20T10:13:02;7.60;99.90
8593;DHT22;4334;49.982;8.398;2023-12-20T10:15:29;9.90;99.90
8593;DHT22;4334;49.982;8.398;2023-12-20T10:17:57;9.60;99.90
8593;DHT22;4334;49.982;8.398;2023-12-20T10:20:25;8.40;99.90
8593;DHT22;4334;49.982;8.398;2023-12-20T10:22:54;7.80;99.90
8593;DHT22;4334;49.982;8.398;2023-12-20T10:25:21;7.80;99.90
8593;DHT22;4334;49.982;8.398;2023-12-20T10:27:50;8.50;99.90
8593;DHT22;4334;49.982;8.398;2023-12-20T10:30:17;8.50;99.90
8593;DHT22;4334;49.982;8.398;2023-12-20T10:32:43;8.40;99.90
8593;DHT22;4334;49.982;8.398;2023-12-20T10:35:10;8.20;99.90
8593;DHT22;4334;49.982;8.398;2023-12-20T10:37:37;8.30;99.90
8593;DHT22;4334;49.982;8.398;2023-12-20T10:40:06;8.70;99.90
8593;DHT22;4334;49.982;8.398;2023-12-20T10:42:35;9.20;99.90
8593;DHT22;4334;49.982;8.398;2023-12-20T10:45:03;9.20;99.90
8593;DHT22;4334;49.982;8.398;2023-12-20T10:47:31;9.50;99.90
8593;DHT22;4334;49.982;8.398;2023-12-20T10:49:59;9.40;99.90
8593;DHT22;4334;49.982;8.398;2023-12-20T10:52:27;9.70;99.90
8593;DHT22;4334;49.982;8.398;2023-12-20T10:54:55;9.60;99.90
8593;DHT22;4334;49.982;8.398;2023-12-20T10:57:27;9.50;99.90
8593;DHT22;4334;49.982;8.398;2023-12-20T10:59:54;9.50;99.90
8593;DHT22;4334;49.982;8.398;2023-12-20T11:02:22;9.80;99.90
8593;DHT22;4334;49.982;8.398;2023-12-20T11:04:55;9.80;99.90
8593;DHT22;4334;49.982;8.398;2023-12-20T11:07:28;10.20;99.90
8593;DHT22;4334;49.982;8.398;2023-12-20T11:09:59;10.10;99.90
8593;DHT22;4334;49.982;8.398;2023-12-20T11:12:35;9.90;99.90
8593;DHT22;4334;49.982;8.398;2023-12-20T11:15:05;9.80;99.90
8593;DHT22;4334;49.982;8.398;2023-12-20T11:17:33;9.70;99.90
8593;DHT22;4334;49.982;8.398;2023-12-20T11:20:08;10.00;99.90
8593;DHT22;4334;49.982;8.398;2023-12-20T11:22:37;10.50;99.90
8593;DHT22;4334;49.982;8.398;2023-12-20T11:25:09;10.40;99.90
8593;DHT22;4334;49.982;8.398;2023-12-20T11:27:41;9.50;99.90
8593;DHT22;4334;49.982;8.398;2023-12-20T11:30:08;9.30;99.90
8593;DHT22;4334;49.982;8.398;2023-12-20T11:32:36;9.70;99.90
8593;DHT22;4334;49.982;8.398;2023-12-20T11:35:18;10.10;99.90
8593;DHT22;4334;49.982;8.398;2023-12-20T11:37:46;10.90;99.90
8593;DHT22;4334;49.982;8.398;2023-12-20T11:40:15;10.60;99.90
8593;DHT22;4334;49.982;8.398;2023-12-20T11:42:45;12.70;99.90
8593;DHT22;4334;49.982;8.398;2023-12-20T11:45:15;10.10;99.90
8593;DHT22;4334;49.982;8.398;2023-12-20T11:47:47;9.10;99.90
8593;DHT22;4334;49.982;8.398;2023-12-20T11:50:15;8.70;99.90
8593;DHT22;4334;49.982;8.398;2023-12-20T11:52:42;8.30;99.90
8593;DHT22;4334;49.982;8.398;2023-12-20T11:55:08;8.50;99.90
8593;DHT22;4334;49.982;8.398;2023-12-20T11:57:36;8.30;99.90
8593;DHT22;4334;49.982;8.398;2023-12-20T12:00:06;8.20;99.90
8593;DHT22;4334;49.982;8.398;2023-12-20T12:02:33;8.20;99.90
8593;DHT22;4334;49.982;8.398;2023-12-20T12:05:00;8.20;99.90
8593;DHT22;4334;49.982;8.398;2023-12-20T12:07:27;8.20;99.90
8593;DHT22;4334;49.982;8.398;2023-12-20T12:09:54;8.20;99.90
8593;DHT22;4334;49.982;8.398;2023-12-20T12:12:20;8.30;99.90
8593;DHT22;4334;49.982;8.398;2023-12-20T12:14:48;8.10;99.90
8593;DHT22;4334;49.982;8.398;2023-12-20T12:17:17;8.30;99.90
8593;DHT22;4334;49.982;8.398;2023-12-20T12:19:43;8.60;99.90
8593;DHT22;4334;49.982;8.398;2023-12-20T12:22:12;8.70;99.90
8593;DHT22;4334;49.982;8.398;2023-12-20T12:24:40;9.30;99.90
8593;DHT22;4334;49.982;8.398;2023-12-20T12:27:07;9.30;99.90
8593;DHT22;4334;49.982;8.398;2023-12-20T12:29:34;9.10;99.90
8593;DHT22;4334;49.982;8.398;2023-12-20T12:32:04;9.00;99.90
8593;DHT22;4334;49.982;8.398;2023-12-20T12:34:32;9.10;99.90
8593;DHT22;4334;49.982;8.398;2023-12-20T12:36:59;9.00;99.90
8593;DHT22;4334;49.982;8.398;2023-12-20T12:39:26;9.10;99.90
8593;DHT22;4334;49.982;8.398;2023-12-20T12:41:55;8.90;99.90
8593;DHT22;4334;49.982;8.398;2023-12-20T12:44:22;8.90;99.90
8593;DHT22;4334;49.982;8.398;2023-12-20T12:46:50;8.80;99.90
8593;DHT22;4334;49.982;8.398;2023-12-20T12:49:19;8.60;99.90
8593;DHT22;4334;49.982;8.398;2023-12-20T12:51:48;8.50;99.90
8593;DHT22;4334;49.982;8.398;2023-12-20T12:54:14;8.50;99.90
8593;DHT22;4334;49.982;8.398;2023-12-20T12:56:43;8.50;99.90
8593;DHT22;4334;49.982;8.398;2023-12-20T12:59:10;8.50;99.90
8593;DHT22;4334;49.982;8.398;2023-12-20T13:01:37;8.40;99.90
8593;DHT22;4334;49.982;8.398;2023-12-20T13:04:04;8.50;99.90
8593;DHT22;4334;49.982;8.398;2023-12-20T13:06:35;8.40;99.90
8593;DHT22;4334;49.982;8.398;2023-12-20T13:09:04;8.40;99.90
8593;DHT22;4334;49.982;8.398;2023-12-20T13:11:31;8.50;99.90
8593;DHT22;4334;49.982;8.398;2023-12-20T13:13:57;8.50;99.90
8593;DHT22;4334;49.982;8.398;2023-12-20T13:16:24;8.60;99.90
8593;DHT22;4334;49.982;8.398;2023-12-20T13:18:51;8.60;99.90
8593;DHT22;4334;49.982;8.398;2023-12-20T13:21:18;8.80;99.90
8593;DHT22;4334;49.982;8.398;2023-12-20T13:23:45;8.90;99.90
8593;DHT22;4334;49.982;8.398;2023-12-20T13:26:14;10.10;99.90
8593;DHT22;4334;49.982;8.398;2023-12-20T13:28:41;9.00;99.90
8593;DHT22;4334;49.982;8.398;2023-12-20T13:31:07;12.80;99.90
8593;DHT22;4334;49.982;8.398;2023-12-20T13:33:35;8.90;99.90
8593;DHT22;4334;49.982;8.398;2023-12-20T13:36:02;9.00;99.90
8593;DHT22;4334;49.982;8.398;2023-12-20T13:38:29;9.00;99.90
8593;DHT22;4334;49.982;8.398;2023-12-20T13:40:56;9.00;99.90
8593;DHT22;4334;49.982;8.398;2023-12-20T13:43:25;8.80;99.90
8593;DHT22;4334;49.982;8.398;2023-12-20T13:45:51;8.80;99.90
8593;DHT22;4334;49.982;8.398;2023-12-20T13:48:18;8.80;99.90
8593;DHT22;4334;49.982;8.398;2023-12-20T13:50:45;8.90;99.90
8593;DHT22;4334;49.982;8.398;2023-12-20T13:53:11;8.90;99.90
8593;DHT22;4334;49.982;8.398;2023-12-20T13:55:39;8.80;99.90
8593;DHT22;4334;49.982;8.398;2023-12-20T13:58:06;8.90;99.90
8593;DHT22;4334;49.982;8.398;2023-12-20T14:00:34;8.80;99.90
8593;DHT22;4334;49.982;8.398;2023-12-20T14:03:02;8.60;99.90
8593;DHT22;4334;49.982;8.398;2023-12-20T14:05:28;8.50;99.90
8593;DHT22;4334;49.982;8.398;2023-12-20T14:07:55;8.50;99.90
8593;DHT22;4334;49.982;8.398;2023-12-20T14:10:24;8.40;99.90
8593;DHT22;4334;49.982;8.398;2023-12-20T14:12:52;8.30;99.90
8593;DHT22;4334;49.982;8.398;2023-12-20T14:15:19;8.30;99.90
8593;DHT22;4334;49.982;8.398;2023-12-20T14:17:47;10.80;99.90
8593;DHT22;4334;49.982;8.398;2023-12-20T14:20:13;8.30;99.90
8593;DHT22;4334;49.982;8.398;2023-12-20T14:22:41;8.20;99.90
8593;DHT22;4334;49.982;8.398;2023-12-20T14:25:11;8.30;99.90
8593;DHT22;4334;49.982;8.398;2023-12-20T14:27:38;8.20;99.90
8593;DHT22;4334;49.982;8.398;2023-12-20T14:30:07;8.20;99.90
8593;DHT22;4334;49.982;8.398;2023-12-20T14:32:35;8.10;99.90
8593;DHT22;4334;49.982;8.398;2023-12-20T14:35:05;8.20;99.90
8593;DHT22;4334;49.982;8.398;2023-12-20T14:37:33;8.10;99.90
8593;DHT22;4334;49.982;8.398;2023-12-20T14:40:00;8.10;99.90
8593;DHT22;4334;49.982;8.398;2023-12-20T14:42:28;8.10;99.90
8593;DHT22;4334;49.982;8.398;2023-12-20T14:44:54;8.10;99.90
8593;DHT22;4334;49.982;8.398;2023-12-20T14:47:21;8.00;99.90
8593;DHT22;4334;49.982;8.398;2023-12-20T14:49:50;8.00;99.90
8593;DHT22;4334;49.982;8.398;2023-12-20T14:52:18;8.00;99.90
8593;DHT22;4334;49.982;8.398;2023-12-20T14:54:45;8.00;99.90
8593;DHT22;4334;49.982;8.398;2023-12-20T14:57:12;7.90;99.90
8593;DHT22;4334;49.982;8.398;2023-12-20T14:59:39;7.80;99.90
8593;DHT22;4334;49.982;8.398;2023-12-20T15:02:06;8.40;99.90
8593;DHT22;4334;49.982;8.398;2023-12-20T15:04:32;7.80;99.90
8593;DHT22;4334;49.982;8.398;2023-12-20T15:06:59;7.70;99.90
8593;DHT22;4334;49.982;8.398;2023-12-20T15:09:29;7.70;99.90
8593;DHT22;4334;49.982;8.398;2023-12-20T15:11:55;7.70;99.90
8593;DHT22;4334;49.982;8.398;2023-12-20T15:14:22;7.70;99.90
8593;DHT22;4334;49.982;8.398;2023-12-20T15:16:49;7.60;99.90
8593;DHT22;4334;49.982;8.398;2023-12-20T15:19:16;7.70;99.90
8593;DHT22;4334;49.982;8.398;2023-12-20T15:21:43;7.60;99.90
8593;DHT22;4334;49.982;8.398;2023-12-20T15:24:09;7.60;99.90
8593;DHT22;4334;49.982;8.398;2023-12-20T15:26:42;7.50;99.90
8593;DHT22;4334;49.982;8.398;2023-12-20T15:29:09;7.50;99.90
8593;DHT22;4334;49.982;8.398;2023-12-20T15:31:42;7.50;99.90
8593;DHT22;4334;49.982;8.398;2023-12-20T15:34:09;7.50;99.90
8593;DHT22;4334;49.982;8.398;2023-12-20T15:36:36;7.50;99.90
8593;DHT22;4334;49.982;8.398;2023-12-20T15:39:03;7.40;99.90
8593;DHT22;4334;49.982;8.398;2023-12-20T15:41:29;7.40;99.90
8593;DHT22;4334;49.982;8.398;2023-12-20T15:43:57;7.40;99.90
8593;DHT22;4334;49.982;8.398;2023-12-20T15:46:24;7.30;99.90
8593;DHT22;4334;49.982;8.398;2023-12-20T15:48:51;7.30;99.90
8593;DHT22;4334;49.982;8.398;2023-12-20T15:51:20;7.30;99.90
8593;DHT22;4334;49.982;8.398;2023-12-20T15:53:47;7.30;99.90
8593;DHT22;4334;49.982;8.398;2023-12-20T15:56:15;7.30;99.90
8593;DHT22;4334;49.982;8.398;2023-12-20T15:58:42;7.30;99.90
8593;DHT22;4334;49.982;8.398;2023-12-20T16:01:10;7.30;99.90
8593;DHT22;4334;49.982;8.398;2023-12-20T16:03:37;7.40;99.90
8593;DHT22;4334;49.982;8.398;2023-12-20T16:06:04;7.30;99.90
8593;DHT22;4334;49.982;8.398;2023-12-20T16:08:31;7.20;99.90
8593;DHT22;4334;49.982;8.398;2023-12-20T16:10:58;7.20;99.90
8593;DHT22;4334;49.982;8.398;2023-12-20T16:13:25;7.20;99.90
8593;DHT22;4334;49.982;8.398;2023-12-20T16:15:52;7.80;99.90
8593;DHT22;4334;49.982;8.398;2023-12-20T16:18:20;7.20;99.90
8593;DHT22;4334;49.982;8.398;2023-12-20T16:20:47;7.20;99.90
8593;DHT22;4334;49.982;8.398;2023-12-20T16:23:14;7.20;99.90
8593;DHT22;4334;49.982;8.398;2023-12-20T16:25:41;7.20;99.90
8593;DHT22;4334;49.982;8.398;2023-12-20T16:28:10;7.20;99.90
8593;DHT22;4334;49.982;8.398;2023-12-20T16:30:37;7.10;99.90
8593;DHT22;4334;49.982;8.398;2023-12-20T16:33:04;7.10;99.90
8593;DHT22;4334;49.982;8.398;2023-12-20T16:35:32;7.10;99.90
8593;DHT22;4334;49.982;8.398;2023-12-20T16:37:59;7.10;99.90
8593;DHT22;4334;49.982;8.398;2023-12-20T16:40:26;7.20;99.90
8593;DHT22;4334;49.982;8.398;2023-12-20T16:42:53;7.20;99.90
8593;DHT22;4334;49.982;8.398;2023-12-20T16:45:21;7.10;99.90
8593;DHT22;4334;49.982;8.398;2023-12-20T16:47:48;7.10;99.90
8593;DHT22;4334;49.982;8.398;2023-12-20T16:50:15;7.10;99.90
8593;DHT22;4334;49.982;8.398;2023-12-20T16:52:43;6.10;99.90
8593;DHT22;4334;49.982;8.398;2023-12-20T16:55:11;7.10;99.90
8593;DHT22;4334;49.982;8.398;2023-12-20T16:57:38;7.10;99.90
8593;DHT22;4334;49.982;8.398;2023-12-20T17:00:06;7.00;99.90
8593;DHT22;4334;49.982;8.398;2023-12-20T17:02:33;7.00;99.90
8593;DHT22;4334;49.982;8.398;2023-12-20T17:05:00;7.00;99.90
8593;DHT22;4334;49.982;8.398;2023-12-20T17:07:27;7.10;99.90
8593;DHT22;4334;49.982;8.398;2023-12-20T17:09:56;7.00;99.90
8593;DHT22;4334;49.982;8.398;2023-12-20T17:12:22;7.00;99.90
8593;DHT22;4334;49.982;8.398;2023-12-20T17:14:50;7.00;99.90
8593;DHT22;4334;49.982;8.398;2023-12-20T17:17:17;7.10;99.90
8593;DHT22;4334;49.982;8.398;2023-12-20T17:19:43;7.10;99.90
8593;DHT22;4334;49.982;8.398;2023-12-20T17:22:10;7.10;99.90
8593;DHT22;4334;49.982;8.398;2023-12-20T17:24:37;7.20;99.90
8593;DHT22;4334;49.982;8.398;2023-12-20T17:27:05;7.20;99.90
8593;DHT22;4334;49.982;8.398;2023-12-20T17:29:33;7.20;99.90
8593;DHT22;4334;49.982;8.398;2023-12-20T17:32:00;7.20;99.90
8593;DHT22;4334;49.982;8.398;2023-12-20T17:34:27;7.20;99.90
8593;DHT22;4334;49.982;8.398;2023-12-20T17:36:53;7.30;99.90
8593;DHT22;4334;49.982;8.398;2023-12-20T17:39:20;9.90;99.90
8593;DHT22;4334;49.982;8.398;2023-12-20T17:41:47;7.20;99.90
8593;DHT22;4334;49.982;8.398;2023-12-20T17:44:15;7.20;99.90
8593;DHT22;4334;49.982;8.398;2023-12-20T17:46:42;7.20;99.90
8593;DHT22;4334;49.982;8.398;2023-12-20T17:49:09;7.20;99.90
8593;DHT22;4334;49.982;8.398;2023-12-20T17:51:35;7.20;99.90
8593;DHT22;4334;49.982;8.398;2023-12-20T17:54:02;7.30;99.90
8593;DHT22;4334;49.982;8.398;2023-12-20T17:56:30;7.20;99.90
8593;DHT22;4334;49.982;8.398;2023-12-20T17:58:57;7.30;99.90
8593;DHT22;4334;49.982;8.398;2023-12-20T18:01:25;7.20;99.90
8593;DHT22;4334;49.982;8.398;2023-12-20T18:03:51;7.20;99.90
8593;DHT22;4334;49.982;8.398;2023-12-20T18:06:18;7.30;99.90
8593;DHT22;4334;49.982;8.398;2023-12-20T18:08:45;7.30;99.90
8593;DHT22;4334;49.982;8.398;2023-12-20T18:11:12;7.30;99.90
8593;DHT22;4334;49.982;8.398;2023-12-20T18:13:38;7.30;99.90
8593;DHT22;4334;49.982;8.398;2023-12-20T18:16:05;7.30;99.90
8593;DHT22;4334;49.982;8.398;2023-12-20T18:18:37;7.30;99.90
8593;DHT22;4334;49.982;8.398;2023-12-20T18:21:04;7.40;99.90
8593;DHT22;4334;49.982;8.398;2023-12-20T18:23:31;7.40;99.90
8593;DHT22;4334;49.982;8.398;2023-12-20T18:25:58;7.40;99.90
8593;DHT22;4334;49.982;8.398;2023-12-20T18:28:24;8.90;99.90
8593;DHT22;4334;49.982;8.398;2023-12-20T18:30:51;7.30;99.90
8593;DHT22;4334;49.982;8.398;2023-12-20T18:33:18;7.40;99.90
8593;DHT22;4334;49.982;8.398;2023-12-20T18:35:46;7.40;99.90
8593;DHT22;4334;49.982;8.398;2023-12-20T18:38:13;7.40;99.90
8593;DHT22;4334;49.982;8.398;2023-12-20T18:40:40;10.30;99.90
8593;DHT22;4334;49.982;8.398;2023-12-20T18:43:12;7.40;99.90
8593;DHT22;4334;49.982;8.398;2023-12-20T18:45:39;7.50;99.90
8593;DHT22;4334;49.982;8.398;2023-12-20T18:48:06;7.40;99.90
8593;DHT22;4334;49.982;8.398;2023-12-20T18:50:33;7.40;99.90
8593;DHT22;4334;49.982;8.398;2023-12-20T18:53:01;7.40;99.90
8593;DHT22;4334;49.982;8.398;2023-12-20T18:55:28;7.90;99.90
8593;DHT22;4334;49.982;8.398;2023-12-20T18:57:54;7.40;99.90
8593;DHT22;4334;49.982;8.398;2023-12-20T19:00:21;9.60;99.90
8593;DHT22;4334;49.982;8.398;2023-12-20T19:02:48;7.40;99.90
8593;DHT22;4334;49.982;8.398;2023-12-20T19:05:16;7.40;99.90
8593;DHT22;4334;49.982;8.398;2023-12-20T19:07:43;7.40;99.90
8593;DHT22;4334;49.982;8.398;2023-12-20T19:10:11;7.40;99.90
8593;DHT22;4334;49.982;8.398;2023-12-20T19:12:38;7.50;99.90
8593;DHT22;4334;49.982;8.398;2023-12-20T19:15:05;7.40;99.90
8593;DHT22;4334;49.982;8.398;2023-12-20T19:17:33;7.40;99.90
8593;DHT22;4334;49.982;8.398;2023-12-20T19:19:59;9.70;99.90
8593;DHT22;4334;49.982;8.398;2023-12-20T19:22:26;8.90;99.90
8593;DHT22;4334;49.982;8.398;2023-12-20T19:24:57;7.40;99.90
8593;DHT22;4334;49.982;8.398;2023-12-20T19:27:26;7.40;99.90
8593;DHT22;4334;49.982;8.398;2023-12-20T19:29:53;7.40;99.90
8593;DHT22;4334;49.982;8.398;2023-12-20T19:32:22;7.40;99.90
8593;DHT22;4334;49.982;8.398;2023-12-20T19:34:49;7.40;99.90
8593;DHT22;4334;49.982;8.398;2023-12-20T19:37:17;8.40;99.90
8593;DHT22;4334;49.982;8.398;2023-12-20T19:39:44;7.30;99.90
8593;DHT22;4334;49.982;8.398;2023-12-20T19:42:12;10.10;99.90
8593;DHT22;4334;49.982;8.398;2023-12-20T19:44:41;7.30;99.90
8593;DHT22;4334;49.982;8.398;2023-12-20T19:47:07;7.30;99.90
8593;DHT22;4334;49.982;8.398;2023-12-20T19:49:34;7.30;99.90
8593;DHT22;4334;49.982;8.398;2023-12-20T19:52:01;7.30;99.90
8593;DHT22;4334;49.982;8.398;2023-12-20T19:54:28;7.30;99.90
8593;DHT22;4334;49.982;8.398;2023-12-20T19:56:55;7.20;99.90
8593;DHT22;4334;49.982;8.398;2023-12-20T19:59:22;7.20;99.90
8593;DHT22;4334;49.982;8.398;2023-12-20T20:01:50;9.10;99.90
8593;DHT22;4334;49.982;8.398;2023-12-20T20:04:19;9.20;99.90
8593;DHT22;4334;49.982;8.398;2023-12-20T20:06:46;7.30;99.90
8593;DHT22;4334;49.982;8.398;2023-12-20T20:09:14;7.30;99.90
8593;DHT22;4334;49.982;8.398;2023-12-20T20:11:40;7.40;99.90